sensor_id;sensor_type;location;lat;lon;timestamp;temperature;humidity
53053;DHT22;38934;52.690;6.184;2022-11-18T00:02:22;6.80;99.90
53053;DHT22;38934;52.690;6.184;2022-11-18T00:04:48;6.90;99.90
53053;DHT22;38934;52.690;6.184;2022-11-18T00:07:13;6.80;99.90
53053;DHT22;38934;52.690;6.184;2022-11-18T00:09:39;6.80;99.90
53053;DHT22;38934;52.690;6.184;2022-11-18T00:12:04;6.80;99.90
53053;DHT22;38934;52.690;6.184;2022-11-18T00:17:21;6.80;99.90
53053;DHT22;38934;52.690;6.184;2022-11-18T00:19:46;6.70;99.90
53053;DHT22;38934;52.690;6.184;2022-11-18T00:22:12;6.70;99.90
53053;DHT22;38934;52.690;6.184;2022-11-18T00:24:37;7.10;99.90
53053;DHT22;38934;52.690;6.184;2022-11-18T00:27:03;6.70;99.90
53053;DHT22;38934;52.690;6.184;2022-11-18T00:29:30;6.70;99.90
53053;DHT22;38934;52.690;6.184;2022-11-18T00:31:56;6.70;99.90
53053;DHT22;38934;52.690;6.184;2022-11-18T00:34:22;6.70;99.90
53053;DHT22;38934;52.690;6.184;2022-11-18T00:36:48;6.70;99.90
53053;DHT22;38934;52.690;6.184;2022-11-18T00:39:14;6.60;99.90
53053;DHT22;38934;52.690;6.184;2022-11-18T00:41:40;6.70;99.90
53053;DHT22;38934;52.690;6.184;2022-11-18T00:44:25;6.70;99.90
53053;DHT22;38934;52.690;6.184;2022-11-18T00:46:50;6.70;99.90
53053;DHT22;38934;52.690;6.184;2022-11-18T00:49:16;6.70;99.90
53053;DHT22;38934;52.690;6.184;2022-11-18T00:51:41;6.70;99.90
53053;DHT22;38934;52.690;6.184;2022-11-18T00:54:07;6.70;99.90
53053;DHT22;38934;52.690;6.184;2022-11-18T00:56:32;6.70;99.90
53053;DHT22;38934;52.690;6.184;2022-11-18T00:58:58;6.70;99.90
53053;DHT22;38934;52.690;6.184;2022-11-18T01:01:23;6.70;99.90
53053;DHT22;38934;52.690;6.184;2022-11-18T01:03:49;6.70;99.90
53053;DHT22;38934;52.690;6.184;2022-11-18T01:06:15;6.70;99.90
53053;DHT22;38934;52.690;6.184;2022-11-18T01:08:40;6.80;99.90
53053;DHT22;38934;52.690;6.184;2022-11-18T01:11:07;7.80;99.90
53053;DHT22;38934;52.690;6.184;2022-11-18T01:13:52;6.80;99.90
53053;DHT22;38934;52.690;6.184;2022-11-18T01:16:20;6.80;99.90
53053;DHT22;38934;52.690;6.184;2022-11-18T01:18:46;6.80;99.90
53053;DHT22;38934;52.690;6.184;2022-11-18T01:21:11;6.80;99.90
53053;DHT22;38934;52.690;6.184;2022-11-18T01:23:37;6.80;99.90
53053;DHT22;38934;52.690;6.184;2022-11-18T01:26:05;6.80;99.90
53053;DHT22;38934;52.690;6.184;2022-11-18T01:28:30;6.80;99.90
53053;DHT22;38934;52.690;6.184;2022-11-18T01:31:18;6.80;99.90
53053;DHT22;38934;52.690;6.184;2022-11-18T01:33:43;6.80;99.90
53053;DHT22;38934;52.690;6.184;2022-11-18T01:38:40;6.80;99.90
53053;DHT22;38934;52.690;6.184;2022-11-18T01:41:06;6.80;99.90
53053;DHT22;38934;52.690;6.184;2022-11-18T01:43:46;6.80;99.90
53053;DHT22;38934;52.690;6.184;2022-11-18T01:46:11;6.80;99.90
53053;DHT22;38934;52.690;6.184;2022-11-18T01:48:37;6.70;99.90
53053;DHT22;38934;52.690;6.184;2022-11-18T01:51:04;6.70;99.90
53053;DHT22;38934;52.690;6.184;2022-11-18T01:53:31;6.80;99.90
53053;DHT22;38934;52.690;6.184;2022-11-18T01:55:59;6.70;99.90
53053;DHT22;38934;52.690;6.184;2022-11-18T01:58:28;6.70;99.90
53053;DHT22;38934;52.690;6.184;2022-11-18T02:00:55;6.70;99.90
53053;DHT22;38934;52.690;6.184;2022-11-18T02:03:20;6.70;99.90
53053;DHT22;38934;52.690;6.184;2022-11-18T02:05:47;6.70;99.90
53053;DHT22;38934;52.690;6.184;2022-11-18T02:08:13;6.70;99.90
53053;DHT22;38934;52.690;6.184;2022-11-18T02:10:39;6.70;99.90
53053;DHT22;38934;52.690;6.184;2022-11-18T02:13:05;6.70;99.90
53053;DHT22;38934;52.690;6.184;2022-11-18T02:15:45;6.70;99.90
53053;DHT22;38934;52.690;6.184;2022-11-18T02:20:45;6.70;99.90
53053;DHT22;38934;52.690;6.184;2022-11-18T02:23:24;6.70;99.90
53053;DHT22;38934;52.690;6.184;2022-11-18T02:28:35;6.70;99.90
53053;DHT22;38934;52.690;6.184;2022-11-18T02:31:14;6.70;99.90
53053;DHT22;38934;52.690;6.184;2022-11-18T02:33:48;6.70;99.90
53053;DHT22;38934;52.690;6.184;2022-11-18T02:36:18;6.70;99.90
53053;DHT22;38934;52.690;6.184;2022-11-18T02:38:47;6.60;99.90
53053;DHT22;38934;52.690;6.184;2022-11-18T02:41:15;6.60;99.90
53053;DHT22;38934;52.690;6.184;2022-11-18T02:43:43;6.70;99.90
53053;DHT22;38934;52.690;6.184;2022-11-18T02:46:10;6.60;99.90
53053;DHT22;38934;52.690;6.184;2022-11-18T02:48:38;6.60;99.90
53053;DHT22;38934;52.690;6.184;2022-11-18T02:51:06;6.60;99.90
53053;DHT22;38934;52.690;6.184;2022-11-18T02:53:35;6.60;99.90
53053;DHT22;38934;52.690;6.184;2022-11-18T02:56:02;6.60;99.90
53053;DHT22;38934;52.690;6.184;2022-11-18T02:58:29;6.60;99.90
53053;DHT22;38934;52.690;6.184;2022-11-18T03:00:55;6.60;99.90
53053;DHT22;38934;52.690;6.184;2022-11-18T03:03:26;6.70;99.90
53053;DHT22;38934;52.690;6.184;2022-11-18T03:05:55;6.70;99.90
53053;DHT22;38934;52.690;6.184;2022-11-18T03:08:24;6.70;99.90
53053;DHT22;38934;52.690;6.184;2022-11-18T03:10:51;6.70;99.90
53053;DHT22;38934;52.690;6.184;2022-11-18T03:13:20;6.70;99.90
53053;DHT22;38934;52.690;6.184;2022-11-18T03:16:00;6.80;99.90
53053;DHT22;38934;52.690;6.184;2022-11-18T03:18:29;6.80;99.90
53053;DHT22;38934;52.690;6.184;2022-11-18T03:20:59;6.80;99.90
53053;DHT22;38934;52.690;6.184;2022-11-18T03:28:35;6.90;99.90
53053;DHT22;38934;52.690;6.184;2022-11-18T03:31:05;6.90;99.90
53053;DHT22;38934;52.690;6.184;2022-11-18T03:33:37;8.20;99.90
53053;DHT22;38934;52.690;6.184;2022-11-18T03:36:05;6.90;99.90
53053;DHT22;38934;52.690;6.184;2022-11-18T03:38:33;7.00;99.90
53053;DHT22;38934;52.690;6.184;2022-11-18T03:41:02;7.00;99.90
53053;DHT22;38934;52.690;6.184;2022-11-18T03:43:30;7.00;99.90
53053;DHT22;38934;52.690;6.184;2022-11-18T03:46:01;7.10;99.90
53053;DHT22;38934;52.690;6.184;2022-11-18T03:48:30;7.10;99.90
53053;DHT22;38934;52.690;6.184;2022-11-18T03:51:06;7.10;99.90
53053;DHT22;38934;52.690;6.184;2022-11-18T03:53:33;7.20;99.90
53053;DHT22;38934;52.690;6.184;2022-11-18T03:56:05;7.20;99.90
53053;DHT22;38934;52.690;6.184;2022-11-18T03:58:37;7.30;99.90
53053;DHT22;38934;52.690;6.184;2022-11-18T04:01:10;7.20;99.90
53053;DHT22;38934;52.690;6.184;2022-11-18T04:03:37;7.30;99.90
53053;DHT22;38934;52.690;6.184;2022-11-18T04:06:08;7.30;99.90
53053;DHT22;38934;52.690;6.184;2022-11-18T04:08:35;7.30;99.90
53053;DHT22;38934;52.690;6.184;2022-11-18T04:11:08;7.40;99.90
53053;DHT22;38934;52.690;6.184;2022-11-18T04:13:55;7.40;99.90
53053;DHT22;38934;52.690;6.184;2022-11-18T04:16:21;7.40;99.90
53053;DHT22;38934;52.690;6.184;2022-11-18T04:18:47;7.90;99.90
53053;DHT22;38934;52.690;6.184;2022-11-18T04:21:12;7.40;99.90
53053;DHT22;38934;52.690;6.184;2022-11-18T04:23:38;7.40;99.90
53053;DHT22;38934;52.690;6.184;2022-11-18T04:26:03;7.40;99.90
53053;DHT22;38934;52.690;6.184;2022-11-18T04:28:28;7.90;99.90
53053;DHT22;38934;52.690;6.184;2022-11-18T04:30:54;7.50;99.90
53053;DHT22;38934;52.690;6.184;2022-11-18T04:33:19;7.40;99.90
53053;DHT22;38934;52.690;6.184;2022-11-18T04:35:45;7.40;99.90
53053;DHT22;38934;52.690;6.184;2022-11-18T04:38:11;7.50;99.90
53053;DHT22;38934;52.690;6.184;2022-11-18T04:40:36;7.50;99.90
53053;DHT22;38934;52.690;6.184;2022-11-18T04:43:02;7.40;99.90
53053;DHT22;38934;52.690;6.184;2022-11-18T04:45:27;7.40;99.90
53053;DHT22;38934;52.690;6.184;2022-11-18T04:47:53;7.40;99.90
53053;DHT22;38934;52.690;6.184;2022-11-18T04:50:19;7.50;99.90
53053;DHT22;38934;52.690;6.184;2022-11-18T04:52:44;8.40;99.90
53053;DHT22;38934;52.690;6.184;2022-11-18T04:55:10;7.40;99.90
53053;DHT22;38934;52.690;6.184;2022-11-18T04:57:35;7.40;99.90
53053;DHT22;38934;52.690;6.184;2022-11-18T05:00:01;7.40;99.90
53053;DHT22;38934;52.690;6.184;2022-11-18T05:02:26;7.90;99.90
53053;DHT22;38934;52.690;6.184;2022-11-18T05:04:52;7.40;99.90
53053;DHT22;38934;52.690;6.184;2022-11-18T05:07:17;7.40;99.90
53053;DHT22;38934;52.690;6.184;2022-11-18T05:09:43;7.40;99.90
53053;DHT22;38934;52.690;6.184;2022-11-18T05:12:12;7.40;99.90
53053;DHT22;38934;52.690;6.184;2022-11-18T05:14:56;7.40;99.90
53053;DHT22;38934;52.690;6.184;2022-11-18T05:17:22;7.40;99.90
53053;DHT22;38934;52.690;6.184;2022-11-18T05:19:47;7.40;99.90
53053;DHT22;38934;52.690;6.184;2022-11-18T05:22:13;7.50;99.90
53053;DHT22;38934;52.690;6.184;2022-11-18T05:24:38;7.40;99.90
53053;DHT22;38934;52.690;6.184;2022-11-18T05:27:04;7.40;99.90
53053;DHT22;38934;52.690;6.184;2022-11-18T05:29:30;8.30;99.90
53053;DHT22;38934;52.690;6.184;2022-11-18T05:31:57;7.40;99.90
53053;DHT22;38934;52.690;6.184;2022-11-18T05:34:23;7.40;99.90
53053;DHT22;38934;52.690;6.184;2022-11-18T05:36:49;7.40;99.90
53053;DHT22;38934;52.690;6.184;2022-11-18T05:39:14;7.50;99.90
53053;DHT22;38934;52.690;6.184;2022-11-18T05:41:40;7.50;99.90
53053;DHT22;38934;52.690;6.184;2022-11-18T05:44:24;7.50;99.90
53053;DHT22;38934;52.690;6.184;2022-11-18T05:46:49;7.50;99.90
53053;DHT22;38934;52.690;6.184;2022-11-18T05:49:15;7.50;99.90
53053;DHT22;38934;52.690;6.184;2022-11-18T05:51:40;7.50;99.90
53053;DHT22;38934;52.690;6.184;2022-11-18T05:54:07;7.50;99.90
53053;DHT22;38934;52.690;6.184;2022-11-18T05:56:39;7.50;99.90
53053;DHT22;38934;52.690;6.184;2022-11-18T05:59:06;7.50;99.90
53053;DHT22;38934;52.690;6.184;2022-11-18T06:01:35;7.90;99.90
53053;DHT22;38934;52.690;6.184;2022-11-18T06:04:03;7.50;99.90
53053;DHT22;38934;52.690;6.184;2022-11-18T06:06:32;7.50;99.90
53053;DHT22;38934;52.690;6.184;2022-11-18T06:09:01;7.50;99.90
53053;DHT22;38934;52.690;6.184;2022-11-18T06:11:28;7.50;99.90
53053;DHT22;38934;52.690;6.184;2022-11-18T06:13:59;7.50;99.90
53053;DHT22;38934;52.690;6.184;2022-11-18T06:16:27;8.20;99.90
53053;DHT22;38934;52.690;6.184;2022-11-18T06:18:53;7.50;99.90
53053;DHT22;38934;52.690;6.184;2022-11-18T06:21:18;7.50;99.90
53053;DHT22;38934;52.690;6.184;2022-11-18T06:23:44;7.50;99.90
53053;DHT22;38934;52.690;6.184;2022-11-18T06:26:09;7.50;99.90
53053;DHT22;38934;52.690;6.184;2022-11-18T06:28:36;7.50;99.90
53053;DHT22;38934;52.690;6.184;2022-11-18T06:31:02;7.50;99.90
53053;DHT22;38934;52.690;6.184;2022-11-18T06:33:28;7.50;99.90
53053;DHT22;38934;52.690;6.184;2022-11-18T06:35:53;7.60;99.90
53053;DHT22;38934;52.690;6.184;2022-11-18T06:38:22;7.50;99.90
53053;DHT22;38934;52.690;6.184;2022-11-18T06:40:47;7.50;99.90
53053;DHT22;38934;52.690;6.184;2022-11-18T06:43:13;8.20;99.90
53053;DHT22;38934;52.690;6.184;2022-11-18T06:45:58;7.50;99.90
53053;DHT22;38934;52.690;6.184;2022-11-18T06:48:44;7.50;99.90
53053;DHT22;38934;52.690;6.184;2022-11-18T06:51:10;7.60;99.90
53053;DHT22;38934;52.690;6.184;2022-11-18T06:53:35;7.50;99.90
53053;DHT22;38934;52.690;6.184;2022-11-18T06:56:02;7.50;99.90
53053;DHT22;38934;52.690;6.184;2022-11-18T06:58:27;7.50;99.90
53053;DHT22;38934;52.690;6.184;2022-11-18T07:00:53;7.60;99.90
53053;DHT22;38934;52.690;6.184;2022-11-18T07:03:18;7.60;99.90
53053;DHT22;38934;52.690;6.184;2022-11-18T07:05:44;7.60;99.90
53053;DHT22;38934;52.690;6.184;2022-11-18T07:08:09;7.50;99.90
53053;DHT22;38934;52.690;6.184;2022-11-18T07:10:35;7.50;99.90
53053;DHT22;38934;52.690;6.184;2022-11-18T07:13:00;7.60;99.90
53053;DHT22;38934;52.690;6.184;2022-11-18T07:15:26;7.90;99.90
53053;DHT22;38934;52.690;6.184;2022-11-18T07:17:51;7.50;99.90
53053;DHT22;38934;52.690;6.184;2022-11-18T07:20:17;7.60;99.90
53053;DHT22;38934;52.690;6.184;2022-11-18T07:22:42;7.50;99.90
53053;DHT22;38934;52.690;6.184;2022-11-18T07:25:08;7.60;99.90
53053;DHT22;38934;52.690;6.184;2022-11-18T07:27:34;7.50;99.90
53053;DHT22;38934;52.690;6.184;2022-11-18T07:29:59;7.50;99.90
53053;DHT22;38934;52.690;6.184;2022-11-18T07:32:25;8.30;99.90
53053;DHT22;38934;52.690;6.184;2022-11-18T07:34:50;7.60;99.90
53053;DHT22;38934;52.690;6.184;2022-11-18T07:37:16;8.30;99.90
53053;DHT22;38934;52.690;6.184;2022-11-18T07:39:41;7.60;99.90
53053;DHT22;38934;52.690;6.184;2022-11-18T07:42:07;7.60;99.90
53053;DHT22;38934;52.690;6.184;2022-11-18T07:44:33;7.50;99.90
53053;DHT22;38934;52.690;6.184;2022-11-18T07:46:59;7.50;99.90
53053;DHT22;38934;52.690;6.184;2022-11-18T07:49:24;7.50;99.90
53053;DHT22;38934;52.690;6.184;2022-11-18T07:51:50;7.50;99.90
53053;DHT22;38934;52.690;6.184;2022-11-18T07:54:15;7.50;99.90
53053;DHT22;38934;52.690;6.184;2022-11-18T07:56:41;7.50;99.90
53053;DHT22;38934;52.690;6.184;2022-11-18T07:59:08;7.50;99.90
53053;DHT22;38934;52.690;6.184;2022-11-18T08:01:34;7.50;99.90
53053;DHT22;38934;52.690;6.184;2022-11-18T08:04:03;7.50;99.90
53053;DHT22;38934;52.690;6.184;2022-11-18T08:06:30;7.50;99.90
53053;DHT22;38934;52.690;6.184;2022-11-18T08:08:56;7.50;99.90
53053;DHT22;38934;52.690;6.184;2022-11-18T08:11:21;7.50;99.90
53053;DHT22;38934;52.690;6.184;2022-11-18T08:13:48;7.50;99.90
53053;DHT22;38934;52.690;6.184;2022-11-18T08:16:14;7.50;99.90
53053;DHT22;38934;52.690;6.184;2022-11-18T08:18:40;7.50;99.90
53053;DHT22;38934;52.690;6.184;2022-11-18T08:21:06;7.80;99.90
53053;DHT22;38934;52.690;6.184;2022-11-18T08:23:32;7.50;99.90
53053;DHT22;38934;52.690;6.184;2022-11-18T08:26:05;7.50;99.90
53053;DHT22;38934;52.690;6.184;2022-11-18T08:28:31;7.50;99.90
53053;DHT22;38934;52.690;6.184;2022-11-18T08:30:56;7.60;99.90
53053;DHT22;38934;52.690;6.184;2022-11-18T08:33:22;7.60;99.90
53053;DHT22;38934;52.690;6.184;2022-11-18T08:35:48;7.50;99.90
53053;DHT22;38934;52.690;6.184;2022-11-18T08:38:13;7.60;99.90
53053;DHT22;38934;52.690;6.184;2022-11-18T08:40:43;7.50;99.90
53053;DHT22;38934;52.690;6.184;2022-11-18T08:43:09;7.50;99.90
53053;DHT22;38934;52.690;6.184;2022-11-18T08:45:35;7.50;99.90
53053;DHT22;38934;52.690;6.184;2022-11-18T08:48:01;7.50;99.90
53053;DHT22;38934;52.690;6.184;2022-11-18T08:50:26;8.70;99.90
53053;DHT22;38934;52.690;6.184;2022-11-18T08:52:52;7.60;99.90
53053;DHT22;38934;52.690;6.184;2022-11-18T08:55:17;7.60;99.90
53053;DHT22;38934;52.690;6.184;2022-11-18T08:57:43;8.20;99.90
53053;DHT22;38934;52.690;6.184;2022-11-18T09:00:09;7.70;99.90
53053;DHT22;38934;52.690;6.184;2022-11-18T09:02:35;7.70;99.90
53053;DHT22;38934;52.690;6.184;2022-11-18T09:05:00;7.70;99.90
53053;DHT22;38934;52.690;6.184;2022-11-18T09:07:26;7.70;99.90
53053;DHT22;38934;52.690;6.184;2022-11-18T09:09:54;7.70;99.90
53053;DHT22;38934;52.690;6.184;2022-11-18T09:12:20;7.70;99.90
53053;DHT22;38934;52.690;6.184;2022-11-18T09:14:46;7.70;99.90
53053;DHT22;38934;52.690;6.184;2022-11-18T09:17:12;7.70;99.90
53053;DHT22;38934;52.690;6.184;2022-11-18T09:19:38;7.70;99.90
53053;DHT22;38934;52.690;6.184;2022-11-18T09:22:05;7.70;99.90
53053;DHT22;38934;52.690;6.184;2022-11-18T09:24:31;7.70;99.90
53053;DHT22;38934;52.690;6.184;2022-11-18T09:26:56;7.70;99.90
53053;DHT22;38934;52.690;6.184;2022-11-18T09:29:22;8.30;99.90
53053;DHT22;38934;52.690;6.184;2022-11-18T09:31:51;7.70;99.90
53053;DHT22;38934;52.690;6.184;2022-11-18T09:34:16;7.70;99.90
53053;DHT22;38934;52.690;6.184;2022-11-18T09:36:43;7.70;99.90
53053;DHT22;38934;52.690;6.184;2022-11-18T09:39:09;7.70;99.90
53053;DHT22;38934;52.690;6.184;2022-11-18T09:41:42;8.60;99.90
53053;DHT22;38934;52.690;6.184;2022-11-18T09:49:31;7.80;99.90
53053;DHT22;38934;52.690;6.184;2022-11-18T09:52:01;7.80;99.90
53053;DHT22;38934;52.690;6.184;2022-11-18T09:54:29;7.90;99.90
53053;DHT22;38934;52.690;6.184;2022-11-18T09:56:56;7.90;99.90
53053;DHT22;38934;52.690;6.184;2022-11-18T09:59:23;7.90;99.90
53053;DHT22;38934;52.690;6.184;2022-11-18T10:01:49;7.90;99.90
53053;DHT22;38934;52.690;6.184;2022-11-18T10:04:16;7.90;99.90
53053;DHT22;38934;52.690;6.184;2022-11-18T10:06:46;7.90;99.90
53053;DHT22;38934;52.690;6.184;2022-11-18T10:17:06;7.80;99.90
53053;DHT22;38934;52.690;6.184;2022-11-18T10:19:45;7.80;99.90
53053;DHT22;38934;52.690;6.184;2022-11-18T10:24:48;8.70;99.90
53053;DHT22;38934;52.690;6.184;2022-11-18T10:27:13;7.80;99.90
53053;DHT22;38934;52.690;6.184;2022-11-18T10:29:41;7.80;99.90
53053;DHT22;38934;52.690;6.184;2022-11-18T10:32:08;7.70;99.90
53053;DHT22;38934;52.690;6.184;2022-11-18T10:34:44;7.70;99.90
53053;DHT22;38934;52.690;6.184;2022-11-18T10:37:27;7.70;99.90
53053;DHT22;38934;52.690;6.184;2022-11-18T10:39:55;7.80;99.90
53053;DHT22;38934;52.690;6.184;2022-11-18T10:42:28;7.80;99.90
53053;DHT22;38934;52.690;6.184;2022-11-18T10:44:54;7.80;99.90
53053;DHT22;38934;52.690;6.184;2022-11-18T10:47:29;7.80;99.90
53053;DHT22;38934;52.690;6.184;2022-11-18T10:49:59;7.90;99.90
53053;DHT22;38934;52.690;6.184;2022-11-18T10:52:25;7.90;99.90
53053;DHT22;38934;52.690;6.184;2022-11-18T10:55:05;7.90;99.90
53053;DHT22;38934;52.690;6.184;2022-11-18T10:57:31;7.90;99.90
53053;DHT22;38934;52.690;6.184;2022-11-18T10:59:59;7.90;99.90
53053;DHT22;38934;52.690;6.184;2022-11-18T11:02:28;8.20;99.90
53053;DHT22;38934;52.690;6.184;2022-11-18T11:04:55;7.90;99.90
53053;DHT22;38934;52.690;6.184;2022-11-18T11:07:32;8.40;99.90
53053;DHT22;38934;52.690;6.184;2022-11-18T11:09:59;7.90;99.90
53053;DHT22;38934;52.690;6.184;2022-11-18T11:12:24;8.00;99.90
53053;DHT22;38934;52.690;6.184;2022-11-18T11:14:54;8.00;99.90
53053;DHT22;38934;52.690;6.184;2022-11-18T11:17:25;8.00;99.90
53053;DHT22;38934;52.690;6.184;2022-11-18T11:20:04;9.00;99.90
53053;DHT22;38934;52.690;6.184;2022-11-18T11:22:30;8.00;99.90
53053;DHT22;38934;52.690;6.184;2022-11-18T11:24:56;8.00;99.90
53053;DHT22;38934;52.690;6.184;2022-11-18T11:27:29;8.00;99.90
53053;DHT22;38934;52.690;6.184;2022-11-18T11:35:21;8.10;99.90
53053;DHT22;38934;52.690;6.184;2022-11-18T11:37:57;8.10;99.90
53053;DHT22;38934;52.690;6.184;2022-11-18T11:48:35;8.00;99.90
53053;DHT22;38934;52.690;6.184;2022-11-18T11:56:34;7.90;99.90
53053;DHT22;38934;52.690;6.184;2022-11-18T12:06:48;7.80;99.90
53053;DHT22;38934;52.690;6.184;2022-11-18T12:09:20;7.80;99.90
53053;DHT22;38934;52.690;6.184;2022-11-18T12:14:34;7.90;99.90
53053;DHT22;38934;52.690;6.184;2022-11-18T12:19:29;7.90;99.90
53053;DHT22;38934;52.690;6.184;2022-11-18T12:21:56;7.80;99.90
53053;DHT22;38934;52.690;6.184;2022-11-18T12:24:38;7.80;99.90
53053;DHT22;38934;52.690;6.184;2022-11-18T12:34:48;7.70;99.90
53053;DHT22;38934;52.690;6.184;2022-11-18T12:39:56;7.60;99.90
53053;DHT22;38934;52.690;6.184;2022-11-18T12:42:44;7.60;99.90
53053;DHT22;38934;52.690;6.184;2022-11-18T12:45:45;7.50;99.90
53053;DHT22;38934;52.690;6.184;2022-11-18T12:50:56;7.40;99.90
53053;DHT22;38934;52.690;6.184;2022-11-18T12:53:33;7.40;99.90
53053;DHT22;38934;52.690;6.184;2022-11-18T12:55:59;7.40;99.90
53053;DHT22;38934;52.690;6.184;2022-11-18T12:58:33;7.40;99.90
53053;DHT22;38934;52.690;6.184;2022-11-18T13:01:02;7.40;99.90
53053;DHT22;38934;52.690;6.184;2022-11-18T13:03:30;7.40;99.90
53053;DHT22;38934;52.690;6.184;2022-11-18T13:06:00;7.40;99.90
53053;DHT22;38934;52.690;6.184;2022-11-18T13:08:27;7.40;99.90
53053;DHT22;38934;52.690;6.184;2022-11-18T13:11:40;7.30;99.90
53053;DHT22;38934;52.690;6.184;2022-11-18T13:14:01;7.30;99.90
53053;DHT22;38934;52.690;6.184;2022-11-18T13:16:45;7.30;99.90
53053;DHT22;38934;52.690;6.184;2022-11-18T13:19:30;7.10;99.90
53053;DHT22;38934;52.690;6.184;2022-11-18T13:21:56;7.10;99.90
53053;DHT22;38934;52.690;6.184;2022-11-18T13:24:44;7.20;99.90
53053;DHT22;38934;52.690;6.184;2022-11-18T13:30:00;7.10;99.90
53053;DHT22;38934;52.690;6.184;2022-11-18T13:32:26;7.10;99.90
53053;DHT22;38934;52.690;6.184;2022-11-18T13:34:54;7.00;99.90
53053;DHT22;38934;52.690;6.184;2022-11-18T13:37:24;7.00;99.90
53053;DHT22;38934;52.690;6.184;2022-11-18T13:39:49;7.00;99.90
53053;DHT22;38934;52.690;6.184;2022-11-18T13:42:33;7.00;99.90
53053;DHT22;38934;52.690;6.184;2022-11-18T13:44:59;7.00;99.90
53053;DHT22;38934;52.690;6.184;2022-11-18T13:55:20;7.20;99.90
53053;DHT22;38934;52.690;6.184;2022-11-18T13:57:51;7.10;99.90
53053;DHT22;38934;52.690;6.184;2022-11-18T14:00:34;7.10;99.90
53053;DHT22;38934;52.690;6.184;2022-11-18T14:03:04;7.20;99.90
53053;DHT22;38934;52.690;6.184;2022-11-18T14:05:30;7.20;99.90
53053;DHT22;38934;52.690;6.184;2022-11-18T14:08:05;7.10;99.90
53053;DHT22;38934;52.690;6.184;2022-11-18T14:10:32;7.00;99.90
53053;DHT22;38934;52.690;6.184;2022-11-18T14:12:58;7.00;99.90
53053;DHT22;38934;52.690;6.184;2022-11-18T14:17:57;6.80;99.90
53053;DHT22;38934;52.690;6.184;2022-11-18T14:20:24;6.80;99.90
53053;DHT22;38934;52.690;6.184;2022-11-18T14:22:57;6.70;99.90
53053;DHT22;38934;52.690;6.184;2022-11-18T14:25:27;6.70;99.90
53053;DHT22;38934;52.690;6.184;2022-11-18T14:27:55;6.60;99.90
53053;DHT22;38934;52.690;6.184;2022-11-18T14:30:37;6.50;99.90
53053;DHT22;38934;52.690;6.184;2022-11-18T14:33:08;6.40;99.90
53053;DHT22;38934;52.690;6.184;2022-11-18T14:35:34;6.30;99.90
53053;DHT22;38934;52.690;6.184;2022-11-18T14:38:00;6.30;99.90
53053;DHT22;38934;52.690;6.184;2022-11-18T14:40:25;6.20;99.90
53053;DHT22;38934;52.690;6.184;2022-11-18T14:42:51;6.10;99.90
53053;DHT22;38934;52.690;6.184;2022-11-18T14:45:16;6.10;99.90
53053;DHT22;38934;52.690;6.184;2022-11-18T14:47:42;6.10;99.90
53053;DHT22;38934;52.690;6.184;2022-11-18T14:50:10;6.10;99.90
53053;DHT22;38934;52.690;6.184;2022-11-18T14:52:36;6.10;99.90
53053;DHT22;38934;52.690;6.184;2022-11-18T14:55:02;6.10;99.90
53053;DHT22;38934;52.690;6.184;2022-11-18T14:57:27;6.10;99.90
53053;DHT22;38934;52.690;6.184;2022-11-18T14:59:53;6.00;99.90
53053;DHT22;38934;52.690;6.184;2022-11-18T15:02:19;6.00;99.90
53053;DHT22;38934;52.690;6.184;2022-11-18T15:04:44;5.90;99.90
53053;DHT22;38934;52.690;6.184;2022-11-18T15:07:14;5.90;99.90
53053;DHT22;38934;52.690;6.184;2022-11-18T15:09:40;5.90;99.90
53053;DHT22;38934;52.690;6.184;2022-11-18T15:12:06;5.90;99.90
53053;DHT22;38934;52.690;6.184;2022-11-18T15:14:32;5.80;99.90
53053;DHT22;38934;52.690;6.184;2022-11-18T15:16:59;5.80;99.90
53053;DHT22;38934;52.690;6.184;2022-11-18T15:19:24;5.70;99.90
53053;DHT22;38934;52.690;6.184;2022-11-18T15:21:50;7.00;99.90
53053;DHT22;38934;52.690;6.184;2022-11-18T15:24:15;5.70;99.90
53053;DHT22;38934;52.690;6.184;2022-11-18T15:26:42;5.60;99.90
53053;DHT22;38934;52.690;6.184;2022-11-18T15:29:41;5.60;99.90
53053;DHT22;38934;52.690;6.184;2022-11-18T15:32:00;5.50;99.90
53053;DHT22;38934;52.690;6.184;2022-11-18T15:34:29;5.50;99.90
53053;DHT22;38934;52.690;6.184;2022-11-18T15:36:54;5.40;99.90
53053;DHT22;38934;52.690;6.184;2022-11-18T15:39:20;5.40;99.90
53053;DHT22;38934;52.690;6.184;2022-11-18T15:41:45;5.40;99.90
53053;DHT22;38934;52.690;6.184;2022-11-18T15:44:11;6.10;99.90
53053;DHT22;38934;52.690;6.184;2022-11-18T15:46:36;5.40;99.90
53053;DHT22;38934;52.690;6.184;2022-11-18T15:49:02;5.30;99.90
53053;DHT22;38934;52.690;6.184;2022-11-18T15:51:29;5.30;99.90
53053;DHT22;38934;52.690;6.184;2022-11-18T15:53:55;5.30;99.90
53053;DHT22;38934;52.690;6.184;2022-11-18T15:56:27;5.30;99.90
53053;DHT22;38934;52.690;6.184;2022-11-18T15:59:03;5.20;99.90
53053;DHT22;38934;52.690;6.184;2022-11-18T16:01:33;5.20;99.90
53053;DHT22;38934;52.690;6.184;2022-11-18T16:03:59;5.20;99.90
53053;DHT22;38934;52.690;6.184;2022-11-18T16:06:24;5.10;99.90
53053;DHT22;38934;52.690;6.184;2022-11-18T16:08:50;5.10;99.90
53053;DHT22;38934;52.690;6.184;2022-11-18T16:11:16;5.10;99.90
53053;DHT22;38934;52.690;6.184;2022-11-18T16:14:09;5.00;99.90
53053;DHT22;38934;52.690;6.184;2022-11-18T16:16:35;5.00;99.90
53053;DHT22;38934;52.690;6.184;2022-11-18T16:19:03;4.90;99.90
53053;DHT22;38934;52.690;6.184;2022-11-18T16:21:30;4.90;99.90
53053;DHT22;38934;52.690;6.184;2022-11-18T16:23:57;4.80;99.90
53053;DHT22;38934;52.690;6.184;2022-11-18T16:26:23;4.80;99.90
53053;DHT22;38934;52.690;6.184;2022-11-18T16:28:48;4.80;99.90
53053;DHT22;38934;52.690;6.184;2022-11-18T16:31:16;4.80;99.90
53053;DHT22;38934;52.690;6.184;2022-11-18T16:34:07;4.80;99.90
53053;DHT22;38934;52.690;6.184;2022-11-18T16:36:37;4.80;99.90
53053;DHT22;38934;52.690;6.184;2022-11-18T16:39:10;4.80;99.90
53053;DHT22;38934;52.690;6.184;2022-11-18T16:41:36;4.80;99.90
53053;DHT22;38934;52.690;6.184;2022-11-18T16:44:07;4.70;99.90
53053;DHT22;38934;52.690;6.184;2022-11-18T16:46:34;4.70;99.90
53053;DHT22;38934;52.690;6.184;2022-11-18T16:49:00;4.70;99.90
53053;DHT22;38934;52.690;6.184;2022-11-18T16:51:27;4.60;99.90
53053;DHT22;38934;52.690;6.184;2022-11-18T16:53:56;4.60;99.90
53053;DHT22;38934;52.690;6.184;2022-11-18T16:56:23;4.60;99.90
53053;DHT22;38934;52.690;6.184;2022-11-18T16:58:49;5.00;99.90
53053;DHT22;38934;52.690;6.184;2022-11-18T17:01:14;4.40;99.90
53053;DHT22;38934;52.690;6.184;2022-11-18T17:03:40;4.40;99.90
53053;DHT22;38934;52.690;6.184;2022-11-18T17:06:05;4.30;99.90
53053;DHT22;38934;52.690;6.184;2022-11-18T17:08:35;4.30;99.90
53053;DHT22;38934;52.690;6.184;2022-11-18T17:11:07;4.30;99.90
53053;DHT22;38934;52.690;6.184;2022-11-18T17:13:34;4.30;99.90
53053;DHT22;38934;52.690;6.184;2022-11-18T17:16:10;4.30;99.90
53053;DHT22;38934;52.690;6.184;2022-11-18T17:18:36;4.30;99.90
53053;DHT22;38934;52.690;6.184;2022-11-18T17:21:02;4.30;99.90
53053;DHT22;38934;52.690;6.184;2022-11-18T17:23:28;4.20;99.90